createdAt,value
2022-07-25T00:01:40.219Z,18.20
2022-07-25T00:04:10.420Z,18.10
2022-07-25T00:06:40.343Z,18.10
2022-07-25T00:09:09.958Z,18.00
2022-07-25T00:11:39.553Z,18.00
2022-07-25T00:14:09.466Z,17.90
2022-07-25T00:16:37.832Z,17.90
2022-07-25T00:19:05.857Z,17.90
2022-07-25T00:21:35.815Z,17.90
2022-07-25T00:24:04.752Z,17.80
2022-07-25T00:26:37.929Z,17.80
2022-07-25T00:29:09.760Z,17.80
2022-07-25T00:31:38.482Z,17.80
2022-07-25T00:34:08.270Z,17.80
2022-07-25T00:36:36.564Z,17.70
2022-07-25T00:39:07.546Z,17.70
2022-07-25T00:41:36.760Z,17.60
2022-07-25T00:44:04.671Z,17.60
2022-07-25T00:46:32.384Z,17.60
2022-07-25T00:49:01.655Z,17.60
2022-07-25T00:51:31.165Z,17.50
2022-07-25T00:54:01.506Z,17.50
2022-07-25T00:56:30.342Z,17.50
2022-07-25T00:58:58.017Z,17.50
2022-07-25T01:01:26.590Z,17.40
2022-07-25T01:03:54.123Z,17.40
2022-07-25T01:06:24.898Z,17.30
2022-07-25T01:08:54.322Z,17.30
2022-07-25T01:11:24.749Z,17.30
2022-07-25T01:13:53.532Z,17.30
2022-07-25T01:16:23.238Z,17.30
2022-07-25T01:18:51.747Z,17.20
2022-07-25T01:21:20.339Z,17.20
2022-07-25T01:23:49.943Z,17.20
2022-07-25T01:26:19.542Z,17.10
2022-07-25T01:28:49.142Z,17.10
2022-07-25T01:31:16.788Z,17.10
2022-07-25T01:33:46.323Z,17.10
2022-07-25T01:36:14.910Z,17.00
2022-07-25T01:38:42.516Z,17.00
2022-07-25T01:41:11.113Z,17.00
2022-07-25T01:43:38.706Z,17.00
2022-07-25T01:46:08.394Z,16.90
2022-07-25T01:48:38.497Z,16.90
2022-07-25T01:51:07.525Z,16.90
2022-07-25T01:53:39.134Z,16.90
2022-07-25T01:56:08.981Z,16.90
2022-07-25T01:58:39.733Z,16.80
2022-07-25T02:01:08.010Z,16.80
2022-07-25T02:03:37.538Z,16.80
2022-07-25T02:06:09.146Z,16.80
2022-07-25T02:08:37.744Z,16.70
2022-07-25T02:11:05.330Z,16.70
2022-07-25T02:13:32.929Z,16.70
2022-07-25T02:16:00.521Z,16.70
2022-07-25T02:18:29.119Z,16.60
2022-07-25T02:20:56.196Z,16.60
2022-07-25T02:23:26.315Z,16.60
2022-07-25T02:25:55.910Z,16.60
2022-07-25T02:28:24.520Z,16.60
2022-07-25T02:30:52.155Z,16.50
2022-07-25T02:33:21.724Z,16.50
2022-07-25T02:35:49.306Z,16.50
2022-07-25T02:38:20.905Z,16.50
2022-07-25T02:40:53.533Z,16.40
2022-07-25T02:43:23.142Z,16.40
2022-07-25T02:45:50.779Z,16.40
2022-07-25T02:48:20.334Z,16.40
2022-07-25T02:50:47.997Z,16.30
2022-07-25T02:53:24.667Z,16.30
2022-07-25T02:56:04.180Z,16.20
2022-07-25T02:58:33.802Z,16.30
2022-07-25T03:01:01.418Z,16.30
2022-07-25T03:03:32.067Z,16.20
2022-07-25T03:06:01.643Z,16.20
2022-07-25T03:08:30.214Z,16.20
2022-07-25T03:11:00.269Z,16.20
2022-07-25T03:13:27.613Z,16.10
2022-07-25T03:15:55.667Z,16.20
2022-07-25T03:18:24.591Z,16.10
2022-07-25T03:20:53.183Z,16.10
2022-07-25T03:23:21.812Z,16.10
2022-07-25T03:25:51.418Z,16.00
2022-07-25T03:28:18.973Z,16.00
2022-07-25T03:30:46.588Z,16.00
2022-07-25T03:33:14.163Z,16.00
2022-07-25T03:35:41.759Z,16.00
2022-07-25T03:38:09.357Z,16.00
2022-07-25T03:40:37.955Z,16.00
2022-07-25T03:43:06.555Z,15.90
2022-07-25T03:45:36.096Z,15.90
2022-07-25T03:48:04.759Z,15.90
2022-07-25T03:50:33.346Z,15.80
2022-07-25T03:53:00.936Z,15.80
2022-07-25T03:55:29.554Z,15.80
2022-07-25T03:57:58.137Z,15.80
2022-07-25T04:00:25.713Z,15.80
2022-07-25T04:02:55.318Z,15.80
2022-07-25T04:05:22.978Z,15.80
2022-07-25T04:07:52.654Z,15.80
2022-07-25T04:10:21.143Z,15.80
2022-07-25T04:12:50.706Z,15.70
2022-07-25T04:15:19.309Z,15.80
2022-07-25T04:28:31.569Z,15.80
2022-07-25T04:31:00.107Z,15.80
2022-07-25T04:33:30.729Z,15.80
2022-07-25T04:36:01.295Z,15.80
2022-07-25T04:38:29.982Z,15.80
2022-07-25T04:40:59.493Z,15.80
2022-07-25T04:43:28.093Z,15.80
2022-07-25T04:45:56.808Z,15.80
2022-07-25T04:48:25.389Z,15.80
2022-07-25T04:50:54.911Z,15.90
2022-07-25T04:53:25.274Z,15.90
2022-07-25T04:55:54.086Z,15.80
2022-07-25T04:58:22.748Z,15.90
2022-07-25T05:00:52.335Z,15.90
2022-07-25T05:03:21.886Z,15.90
2022-07-25T05:05:50.432Z,16.00
2022-07-25T05:08:20.067Z,16.00
2022-07-25T05:10:47.672Z,16.00
2022-07-25T05:13:17.322Z,16.00
2022-07-25T05:15:46.878Z,16.10
2022-07-25T05:18:16.500Z,16.00
2022-07-25T05:20:45.097Z,16.10
2022-07-25T05:23:14.665Z,16.10
2022-07-25T05:25:42.281Z,16.10
2022-07-25T05:28:10.897Z,16.20
2022-07-25T05:30:40.023Z,16.20
2022-07-25T05:33:07.862Z,16.20
2022-07-25T05:35:36.722Z,16.20
2022-07-25T05:38:07.298Z,16.30
2022-07-25T05:40:36.901Z,16.30
2022-07-25T05:43:05.492Z,16.40
2022-07-25T05:45:40.680Z,16.40
2022-07-25T05:48:10.743Z,16.60
2022-07-25T05:50:38.350Z,16.70
2022-07-25T05:53:06.931Z,16.80
2022-07-25T05:55:35.523Z,16.90
2022-07-25T05:58:08.141Z,17.00
2022-07-25T06:00:37.705Z,17.10
2022-07-25T06:05:51.462Z,17.50
2022-07-25T06:08:24.855Z,17.60
2022-07-25T06:10:54.213Z,17.80
2022-07-25T06:13:34.664Z,18.10
2022-07-25T06:16:59.665Z,18.30
2022-07-25T06:19:28.274Z,18.60
2022-07-25T06:22:02.584Z,19.00
2022-07-25T06:25:16.696Z,19.20
2022-07-25T06:28:03.425Z,19.50
2022-07-25T06:30:33.963Z,19.90
2022-07-25T06:33:36.120Z,20.20
2022-07-25T06:36:09.348Z,20.60
2022-07-25T06:38:51.960Z,21.00
2022-07-25T06:41:19.528Z,21.50
2022-07-25T06:53:59.127Z,23.20
2022-07-25T20:03:52.433Z,27.00
2022-07-25T20:06:26.007Z,27.00
2022-07-25T20:08:55.105Z,27.00
2022-07-25T20:11:26.098Z,26.90
2022-07-25T20:13:57.453Z,26.90
2022-07-25T20:16:31.702Z,26.90
2022-07-25T20:19:05.955Z,26.80
2022-07-25T20:21:42.826Z,26.80
2022-07-25T20:24:26.108Z,26.80
2022-07-25T23:13:59.765Z,24.00
2022-07-25T23:17:19.341Z,23.90
2022-07-25T23:20:01.744Z,23.90
2022-07-25T23:22:33.050Z,23.80
2022-07-25T23:25:03.396Z,23.80
2022-07-25T23:27:44.414Z,23.70
2022-07-25T23:30:13.899Z,23.70
2022-07-25T23:32:43.512Z,23.70
2022-07-25T23:35:14.088Z,23.70
2022-07-25T23:37:54.780Z,23.70
2022-07-25T23:40:42.173Z,23.60
2022-07-25T23:43:15.175Z,23.70
2022-07-25T23:46:03.726Z,23.70
2022-07-25T23:48:34.166Z,23.70
2022-07-25T23:51:08.906Z,23.70
2022-07-25T23:54:37.514Z,23.70
2022-07-25T23:57:26.003Z,23.70
2022-07-25T23:59:57.199Z,23.70
